Weather at Orlando International Airport

Public forecast

Using degrees Fahrenheit for public forecast. Weather courtesy of forecast.io.

Current aviation weather report (METAR) for Orlando International Airport

Retrieved 2021/10/19 20:53 UTC (58 minutes ago):

KMCO 192053Z 07011KT 10SM FEW280 28/15 A3013 RMK AO2 SLP201 T02780150 55005

Aviation forecast (TAF) for Orlando International Airport

Retrieved 2021/10/19 18:22 UTC (3 hours ago):

TAF KMCO 191720Z 1918/2024 07011G18KT P6SM SCT050 SCT300 FM192300 06007KT P6SM FEW040 SCT250 FM200300 VRB03KT P6SM FEW040 SCT250 FM201500 07009KT P6SM FEW045 SCT250